createdAt,value
2017-04-25T00:00:52.877Z,11
2017-04-25T00:01:55.246Z,11
2017-04-25T00:02:58.267Z,11
2017-04-25T00:04:00.635Z,11
2017-04-25T00:05:03.057Z,11
2017-04-25T00:06:05.446Z,10.9
2017-04-25T00:07:07.874Z,10.9
2017-04-25T00:08:10.235Z,11
2017-04-25T00:09:12.646Z,11
2017-04-25T00:10:15.334Z,11
2017-04-25T00:11:17.729Z,11
2017-04-25T00:12:20.107Z,11
2017-04-25T00:13:22.466Z,10.9
2017-04-25T00:14:24.893Z,10.9
2017-04-25T00:15:27.318Z,10.9
2017-04-25T00:16:29.745Z,10.9
2017-04-25T00:17:32.120Z,10.9
2017-04-25T00:18:34.464Z,10.9
2017-04-25T00:19:36.888Z,10.9
2017-04-25T00:20:39.282Z,10.9
2017-04-25T00:21:41.666Z,10.9
2017-04-25T00:22:44.094Z,10.9
2017-04-25T00:23:46.485Z,10.9
2017-04-25T00:24:48.908Z,10.8
2017-04-25T00:25:52.270Z,10.8
2017-04-25T00:26:54.649Z,10.8
2017-04-25T00:27:57.020Z,10.7
2017-04-25T00:28:59.430Z,10.5
2017-04-25T00:30:01.859Z,10.8
2017-04-25T00:31:04.255Z,10.8
2017-04-25T00:32:06.613Z,10.8
2017-04-25T00:33:09.680Z,10.9
2017-04-25T00:34:12.050Z,10.8
2017-04-25T00:35:14.397Z,10.7
2017-04-25T00:36:16.818Z,10.6
2017-04-25T00:37:19.192Z,10.7
2017-04-25T00:38:21.599Z,10.7
2017-04-25T00:39:24.410Z,10.6
2017-04-25T00:40:26.814Z,10.6
2017-04-25T00:41:29.238Z,10.5
2017-04-25T00:42:31.700Z,10.6
2017-04-25T00:43:34.097Z,10.6
2017-04-25T00:44:36.504Z,10.6
2017-04-25T00:45:38.905Z,10.6
2017-04-25T00:46:41.313Z,10.5
2017-04-25T00:47:43.745Z,10.4
2017-04-25T00:48:46.127Z,10.5
2017-04-25T00:49:48.573Z,10.5
2017-04-25T00:50:50.986Z,10.5
2017-04-25T00:51:53.545Z,10.6
2017-04-25T00:52:55.927Z,10.6
2017-04-25T00:53:58.329Z,10.5
2017-04-25T00:55:00.706Z,10.4
2017-04-25T00:56:03.093Z,10.5
2017-04-25T00:57:05.467Z,10.4
2017-04-25T00:58:07.900Z,10.5
2017-04-25T00:59:10.303Z,10.4
2017-04-25T01:00:12.651Z,10.4
2017-04-25T01:01:17.251Z,10.4
2017-04-25T01:02:19.649Z,10.4
2017-04-25T01:03:22.043Z,10.4
2017-04-25T01:04:24.500Z,10.4
2017-04-25T01:05:26.903Z,10.1
2017-04-25T01:06:29.366Z,10.2
2017-04-25T01:07:31.797Z,10.2
2017-04-25T01:08:34.209Z,10.4
2017-04-25T01:09:36.604Z,10.4
2017-04-25T01:10:39.056Z,10.4
2017-04-25T01:11:41.461Z,10.3
2017-04-25T01:12:43.848Z,10.3
2017-04-25T01:13:46.296Z,10.1
2017-04-25T01:14:48.723Z,10.2
2017-04-25T01:15:51.070Z,10.1
2017-04-25T01:16:53.457Z,10.1
2017-04-25T01:17:55.873Z,10.3
2017-04-25T01:18:58.241Z,10.2
2017-04-25T01:20:00.621Z,10.1
2017-04-25T01:21:02.975Z,10.2
2017-04-25T01:22:05.335Z,10.1
2017-04-25T01:23:07.715Z,10.2
2017-04-25T01:24:10.072Z,10.1
2017-04-25T01:25:12.411Z,10.2
2017-04-25T01:26:14.806Z,10.1
2017-04-25T01:27:17.188Z,10.1
2017-04-25T01:28:19.588Z,10
2017-04-25T01:29:21.950Z,10
2017-04-25T01:31:31.795Z,10.2
2017-04-25T01:32:34.225Z,10.1
2017-04-25T01:33:36.596Z,10.1
2017-04-25T01:34:39.104Z,10
2017-04-25T01:35:41.432Z,10
2017-04-25T01:36:43.789Z,10
2017-04-25T01:37:46.197Z,10
2017-04-25T01:38:48.686Z,9.9
2017-04-25T01:39:51.037Z,10
2017-04-25T01:40:53.440Z,10
2017-04-25T01:41:55.780Z,10
2017-04-25T01:42:58.247Z,10
2017-04-25T01:44:00.602Z,9.9
2017-04-25T01:45:02.999Z,9.8
2017-04-25T01:46:05.365Z,9.8
2017-04-25T01:47:07.988Z,9.9
2017-04-25T01:48:10.374Z,9.7
2017-04-25T01:49:12.806Z,9.7
2017-04-25T01:50:15.181Z,9.6
2017-04-25T01:51:17.565Z,9.9
2017-04-25T01:52:19.961Z,9.8
2017-04-25T01:53:22.311Z,9.7
2017-04-25T01:54:24.736Z,9.8
2017-04-25T01:55:27.420Z,9.8
2017-04-25T01:56:29.831Z,9.9
2017-04-25T01:57:32.225Z,9.9
2017-04-25T01:58:34.633Z,9.9
2017-04-25T01:59:37.066Z,9.9
2017-04-25T02:00:39.653Z,9.9
2017-04-25T02:01:41.997Z,9.8
2017-04-25T02:02:44.427Z,9.8
2017-04-25T02:03:46.897Z,9.9
2017-04-25T02:04:49.305Z,9.9
2017-04-25T02:05:51.655Z,9.9
2017-04-25T02:06:54.042Z,9.9
2017-04-25T02:07:56.472Z,9.9
2017-04-25T02:08:58.869Z,9.8
2017-04-25T02:10:01.546Z,9.9
2017-04-25T02:11:03.911Z,10
2017-04-25T02:12:06.439Z,10
2017-04-25T02:13:08.921Z,10.1
2017-04-25T02:14:11.284Z,10
2017-04-25T02:15:13.741Z,9.9
2017-04-25T02:16:16.168Z,10
2017-04-25T02:17:18.805Z,10
2017-04-25T02:18:21.252Z,10
2017-04-25T02:19:23.648Z,9.9
2017-04-25T02:20:26.011Z,9.8
2017-04-25T02:21:28.408Z,9.8
2017-04-25T02:22:30.812Z,9.8
2017-04-25T02:23:33.164Z,9.9
2017-04-25T02:24:35.598Z,9.8
2017-04-25T02:25:37.961Z,9.7
2017-04-25T02:26:40.336Z,9.9
2017-04-25T02:27:42.681Z,9.9
2017-04-25T02:28:45.052Z,9.7
2017-04-25T02:29:47.376Z,9.8
2017-04-25T02:30:49.758Z,9.9
2017-04-25T02:31:52.080Z,9.7
2017-04-25T02:32:54.490Z,9.7
2017-04-25T02:33:56.908Z,9.9
2017-04-25T02:34:59.253Z,9.9
2017-04-25T02:36:01.610Z,9.9
2017-04-25T02:37:03.940Z,9.9
2017-04-25T02:38:06.310Z,9.9
2017-04-25T02:39:08.730Z,9.8
2017-04-25T02:40:11.076Z,9.8
2017-04-25T02:41:14.499Z,9.8
2017-04-25T02:42:16.892Z,9.8
2017-04-25T02:43:19.303Z,9.7
2017-04-25T02:44:21.670Z,9.8
2017-04-25T02:45:24.014Z,9.6
2017-04-25T02:46:26.377Z,9.7
2017-04-25T02:47:28.759Z,9.6
2017-04-25T02:48:31.726Z,9.8
2017-04-25T02:49:34.075Z,9.6
2017-04-25T02:50:36.458Z,9.6
2017-04-25T02:51:38.832Z,9.8
2017-04-25T02:52:41.161Z,9.8
2017-04-25T02:53:43.596Z,9.8
2017-04-25T02:54:45.986Z,9.8
2017-04-25T02:55:48.363Z,9.6
2017-04-25T02:56:50.756Z,9.7
2017-04-25T02:57:53.096Z,9.8
2017-04-25T02:58:55.478Z,9.7
2017-04-25T02:59:57.815Z,9.6
2017-04-25T03:01:00.137Z,9.7
2017-04-25T03:02:02.535Z,9.8
2017-04-25T03:03:04.932Z,9.7
2017-04-25T03:04:07.261Z,9.7
2017-04-25T03:05:09.685Z,9.7
2017-04-25T03:06:12.072Z,9.8
2017-04-25T03:07:14.433Z,9.6
2017-04-25T03:08:16.760Z,9.7
2017-04-25T03:09:19.133Z,9.6
2017-04-25T03:10:21.473Z,9.7
2017-04-25T03:11:23.876Z,9.6
2017-04-25T03:12:26.277Z,9.7
2017-04-25T03:13:28.991Z,9.7
2017-04-25T03:14:31.413Z,9.7
2017-04-25T03:15:34.449Z,9.6
2017-04-25T03:16:36.846Z,9.4
2017-04-25T03:17:39.221Z,9.7
2017-04-25T03:18:41.602Z,9.6
2017-04-25T03:19:43.994Z,9.7
2017-04-25T03:20:46.443Z,9.6
2017-04-25T03:21:48.852Z,9.6
2017-04-25T03:22:51.224Z,9.6
2017-04-25T03:23:53.631Z,9.5
2017-04-25T03:24:55.992Z,9.6
2017-04-25T03:25:58.375Z,9.6
2017-04-25T03:27:00.950Z,9.6
2017-04-25T03:28:04.103Z,9.6
2017-04-25T03:29:06.505Z,9.6
2017-04-25T03:30:08.864Z,9.7
2017-04-25T03:31:11.227Z,9.6
2017-04-25T03:32:13.603Z,9.7
2017-04-25T03:33:15.984Z,9.6
2017-04-25T03:34:23.332Z,9.4
2017-04-25T03:35:25.712Z,9.5
2017-04-25T03:36:28.042Z,9.7
2017-04-25T03:37:30.389Z,9.6
2017-04-25T03:38:33.422Z,9.6
2017-04-25T03:39:35.804Z,9.6
2017-04-25T03:40:38.251Z,9.7
2017-04-25T03:41:40.626Z,9.7
2017-04-25T03:42:43.015Z,9.7
2017-04-25T03:43:45.409Z,9.6
2017-04-25T03:44:47.844Z,9.6
2017-04-25T03:45:50.169Z,9.7
2017-04-25T03:46:52.563Z,9.6
2017-04-25T03:47:54.907Z,9.5
2017-04-25T03:48:57.264Z,9.7
2017-04-25T03:49:59.638Z,9.8
2017-04-25T03:51:02.127Z,9.6
2017-04-25T03:52:04.464Z,9.5
2017-04-25T03:53:06.795Z,9.6
2017-04-25T03:54:09.129Z,9.7
2017-04-25T03:55:11.464Z,9.8
2017-04-25T03:56:13.814Z,9.8
2017-04-25T03:57:16.175Z,9.8
2017-04-25T03:58:18.518Z,9.8
2017-04-25T03:59:20.893Z,9.8
2017-04-25T04:00:23.383Z,9.6
2017-04-25T04:01:25.973Z,9.6
2017-04-25T04:02:28.467Z,9.5
2017-04-25T04:03:31.031Z,9.5
2017-04-25T04:04:33.752Z,9.6
2017-04-25T04:05:36.262Z,9.6
2017-04-25T04:06:38.688Z,9.8
2017-04-25T04:07:41.110Z,9.7
2017-04-25T04:08:43.665Z,9.5
2017-04-25T04:09:46.175Z,9.7
2017-04-25T04:10:48.839Z,9.7
2017-04-25T04:11:51.289Z,9.8
2017-04-25T04:12:53.616Z,9.8
2017-04-25T04:13:56.089Z,9.8
2017-04-25T04:14:58.585Z,9.9
2017-04-25T04:16:00.925Z,9.8
2017-04-25T04:17:03.281Z,9.8
2017-04-25T04:18:05.636Z,9.9
2017-04-25T04:19:08.025Z,9.9
2017-04-25T04:20:10.389Z,9.8
2017-04-25T04:21:12.734Z,9.7
2017-04-25T04:22:15.239Z,9.8
2017-04-25T04:23:17.665Z,9.9
2017-04-25T04:24:20.165Z,9.9
2017-04-25T04:25:22.539Z,9.8
2017-04-25T04:26:24.869Z,9.4
2017-04-25T04:27:27.243Z,9.3
2017-04-25T04:28:29.901Z,8.9
2017-04-25T04:29:32.396Z,9.1
2017-04-25T04:30:34.949Z,9.2
2017-04-25T04:31:37.738Z,8.8
2017-04-25T04:32:42.148Z,8.8
2017-04-25T04:33:44.630Z,8.5
2017-04-25T04:34:47.004Z,8
2017-04-25T04:35:49.477Z,8.2
2017-04-25T04:36:51.824Z,7.9
2017-04-25T04:37:54.192Z,7.8
2017-04-25T04:38:56.532Z,7.8
2017-04-25T04:39:59.076Z,7.6
2017-04-25T04:41:01.637Z,7.8
2017-04-25T04:42:04.286Z,7.5
2017-04-25T04:43:06.658Z,7.3
2017-04-25T04:44:09.271Z,7.3
2017-04-25T04:45:11.752Z,7.4
2017-04-25T04:46:14.257Z,7.3
2017-04-25T04:47:16.818Z,7.4
2017-04-25T04:48:19.827Z,7.2
2017-04-25T04:49:22.390Z,7
2017-04-25T04:50:24.825Z,7.2
2017-04-25T04:51:27.256Z,7.3
2017-04-25T04:52:29.761Z,7.2
2017-04-25T04:53:32.386Z,7
2017-04-25T04:54:34.870Z,6.9
2017-04-25T04:55:37.236Z,7.2
2017-04-25T04:56:39.671Z,7.3
2017-04-25T04:57:42.016Z,6.9
2017-04-25T04:58:44.404Z,6.6
2017-04-25T04:59:46.797Z,6.2
2017-04-25T05:00:49.201Z,6.8
2017-04-25T05:01:53.501Z,6.5
2017-04-25T05:02:56.073Z,6.7
2017-04-25T05:03:58.477Z,6.9
2017-04-25T05:05:00.837Z,7
2017-04-25T05:06:03.264Z,7.1
2017-04-25T05:07:05.713Z,7.3
2017-04-25T05:08:08.094Z,7.4
2017-04-25T05:09:10.505Z,7.2
2017-04-25T05:10:12.870Z,6.6
2017-04-25T05:11:15.372Z,6.6
2017-04-25T05:12:19.572Z,6.6
2017-04-25T05:13:22.320Z,6.6
2017-04-25T05:14:24.776Z,6.4
2017-04-25T05:15:27.201Z,6.4
2017-04-25T05:16:29.613Z,6.6
2017-04-25T05:17:31.965Z,6.5
2017-04-25T05:18:34.424Z,6.7
2017-04-25T05:19:36.962Z,6.7
2017-04-25T05:20:39.422Z,7
2017-04-25T05:21:41.884Z,7.1
2017-04-25T05:22:44.331Z,6.8
2017-04-25T05:23:46.764Z,7.1
2017-04-25T05:24:49.215Z,6.6
2017-04-25T05:25:51.595Z,6.7
2017-04-25T05:26:53.979Z,6.8
2017-04-25T05:27:56.449Z,7
2017-04-25T05:28:58.837Z,7.1
2017-04-25T05:30:01.245Z,6.9
2017-04-25T05:31:03.704Z,7
2017-04-25T05:32:06.132Z,7.1
2017-04-25T05:33:08.612Z,7.2
2017-04-25T05:34:11.128Z,7
2017-04-25T05:35:13.598Z,6.9
2017-04-25T05:36:15.981Z,7.2
2017-04-25T05:37:18.432Z,7
2017-04-25T05:38:20.871Z,7
2017-04-25T05:39:23.313Z,6.4
2017-04-25T05:40:25.709Z,6.3
2017-04-25T05:41:28.397Z,6.8
2017-04-25T05:42:30.912Z,7.2
2017-04-25T05:43:33.288Z,7.2
2017-04-25T05:44:35.694Z,7.4
2017-04-25T05:45:38.097Z,7.4
2017-04-25T05:46:41.089Z,7.3
2017-04-25T05:47:44.213Z,7.4
2017-04-25T05:48:46.653Z,6.7
2017-04-25T05:49:49.012Z,7.1
2017-04-25T05:50:51.400Z,7
2017-04-25T05:51:53.765Z,6.7
2017-04-25T05:52:56.355Z,6.5
2017-04-25T05:53:58.906Z,6.6
2017-04-25T05:55:01.350Z,7.1
2017-04-25T05:56:03.732Z,7.2
2017-04-25T05:57:06.165Z,6.8
2017-04-25T05:58:09.545Z,6.7
2017-04-25T05:59:11.961Z,6.9
2017-04-25T06:00:14.367Z,7.2
2017-04-25T06:01:16.764Z,7.2
2017-04-25T06:02:19.133Z,7.1
2017-04-25T06:03:21.521Z,7.3
2017-04-25T06:04:24.824Z,7.5
2017-04-25T06:05:27.904Z,7.5
2017-04-25T06:06:30.320Z,7.3
2017-04-25T06:07:32.728Z,7.1
2017-04-25T06:08:35.186Z,7.2
2017-04-25T06:09:37.631Z,7.2
2017-04-25T06:10:40.088Z,7.2
2017-04-25T06:11:42.940Z,6.8
2017-04-25T06:12:45.523Z,7.3
2017-04-25T06:13:47.967Z,7.1
2017-04-25T06:14:50.421Z,7.5
2017-04-25T06:15:52.913Z,7.5
2017-04-25T06:16:55.419Z,7.6
2017-04-25T06:17:57.909Z,7.2
2017-04-25T06:19:00.366Z,7.5
2017-04-25T06:20:02.793Z,7.8
2017-04-25T06:21:05.176Z,7.6
2017-04-25T06:22:07.637Z,7.4
2017-04-25T06:23:10.019Z,7.7
2017-04-25T06:24:12.482Z,7.4
2017-04-25T06:25:15.618Z,7.1
2017-04-25T06:26:18.024Z,7.6
2017-04-25T06:27:20.458Z,7.8
2017-04-25T06:28:22.908Z,7.7
2017-04-25T06:29:25.377Z,7.4
2017-04-25T06:30:27.815Z,7.5
2017-04-25T06:31:30.232Z,7.6
2017-04-25T06:32:32.569Z,7.4
2017-04-25T06:33:35.021Z,7.7
2017-04-25T06:34:37.571Z,7.6
2017-04-25T06:35:40.286Z,7.4
2017-04-25T06:36:42.867Z,7.4
2017-04-25T06:37:45.802Z,7.4
2017-04-25T06:38:48.168Z,7.7
2017-04-25T06:39:50.710Z,7.9
2017-04-25T06:40:53.249Z,8.1
2017-04-25T06:41:55.728Z,7.9
2017-04-25T06:42:58.249Z,7.9
2017-04-25T06:44:00.635Z,8
2017-04-25T06:45:03.053Z,8
2017-04-25T06:46:05.489Z,7.7
2017-04-25T06:47:07.961Z,7.8
2017-04-25T06:48:10.339Z,7.5
2017-04-25T06:49:12.816Z,7.6
2017-04-25T06:50:15.553Z,7.8
2017-04-25T06:51:18.430Z,8.3
2017-04-25T06:52:24.012Z,8.8
2017-04-25T06:53:26.842Z,7.9
2017-04-25T06:54:29.712Z,7.8
2017-04-25T06:55:32.488Z,7.4
2017-04-25T06:56:35.293Z,7.7
2017-04-25T06:57:38.405Z,8.4
2017-04-25T06:58:42.711Z,8.4
2017-04-25T06:59:45.802Z,7.7
2017-04-25T07:00:48.871Z,7.8
2017-04-25T07:01:51.840Z,7.8
2017-04-25T07:02:54.756Z,7.5
2017-04-25T07:03:57.691Z,7.9
2017-04-25T07:05:00.504Z,8.2
2017-04-25T07:06:03.339Z,7.8
2017-04-25T07:07:07.748Z,8.1
2017-04-25T07:08:10.869Z,7.8
2017-04-25T07:09:13.734Z,7.7
2017-04-25T07:10:16.342Z,8.2
2017-04-25T07:11:19.114Z,8.2
2017-04-25T07:12:21.971Z,8.2
2017-04-25T07:13:24.700Z,8.1
2017-04-25T07:14:27.257Z,8.3
2017-04-25T07:15:30.018Z,8.4
2017-04-25T07:16:32.578Z,8.7
2017-04-25T07:17:35.488Z,8.1
2017-04-25T07:18:38.944Z,7.9
2017-04-25T07:19:41.453Z,8.1
2017-04-25T07:20:43.948Z,7.7
2017-04-25T07:21:46.694Z,7.7
2017-04-25T07:22:49.366Z,7.9
2017-04-25T07:23:52.007Z,7.7
2017-04-25T07:24:54.592Z,7.8
2017-04-25T07:25:57.076Z,7.7
2017-04-25T07:26:59.560Z,8
2017-04-25T07:28:02.554Z,7.8
2017-04-25T07:29:05.365Z,7.6
2017-04-25T07:30:08.101Z,8
2017-04-25T07:31:11.218Z,8.1
2017-04-25T07:32:13.765Z,7.7
2017-04-25T07:33:16.354Z,7.9
2017-04-25T07:34:18.829Z,7.9
2017-04-25T07:35:22.456Z,7.8
2017-04-25T07:36:25.137Z,7.9
2017-04-25T07:37:27.602Z,7.9
2017-04-25T07:38:30.136Z,8.7
2017-04-25T07:39:32.760Z,9.2
2017-04-25T07:40:35.415Z,9
2017-04-25T07:41:37.939Z,8.4
2017-04-25T07:42:40.563Z,8.7
2017-04-25T07:43:43.072Z,8.4
2017-04-25T07:44:45.660Z,8.6
2017-04-25T07:45:48.180Z,8.6
2017-04-25T07:46:50.797Z,8.8
2017-04-25T07:47:53.477Z,9.3
2017-04-25T07:48:56.144Z,8.5
2017-04-25T07:49:58.747Z,8.9
2017-04-25T07:51:01.347Z,8.6
2017-04-25T07:52:03.981Z,9.1
2017-04-25T07:53:06.576Z,8.1
2017-04-25T07:54:09.124Z,8.4
2017-04-25T07:55:11.574Z,8.4
2017-04-25T07:56:14.153Z,8.6
2017-04-25T07:57:16.871Z,8.3
2017-04-25T07:58:20.704Z,7.9
2017-04-25T07:59:23.711Z,7.9
2017-04-25T08:00:26.164Z,8.1
2017-04-25T08:01:28.946Z,8.4
2017-04-25T08:02:32.139Z,9.2
2017-04-25T08:03:34.637Z,8.7
2017-04-25T08:04:37.152Z,8.4
2017-04-25T08:05:39.690Z,8.4
2017-04-25T08:06:42.276Z,7.8
2017-04-25T08:07:44.877Z,8.3
2017-04-25T08:08:47.390Z,8.6
2017-04-25T08:09:50.073Z,8.1
2017-04-25T08:10:52.681Z,7.9
2017-04-25T08:11:55.275Z,7.7
2017-04-25T08:12:57.945Z,7.6
2017-04-25T08:14:00.555Z,7.7
2017-04-25T08:15:03.292Z,7.8
2017-04-25T08:16:06.403Z,7.8
2017-04-25T08:17:09.134Z,8.3
2017-04-25T08:18:11.802Z,8.6
2017-04-25T08:19:14.329Z,8.1
2017-04-25T08:20:16.838Z,7.8
2017-04-25T08:21:19.395Z,8
2017-04-25T08:22:22.516Z,7.9
2017-04-25T08:23:25.299Z,8
2017-04-25T08:24:28.066Z,8.1
2017-04-25T08:25:30.869Z,8.4
2017-04-25T08:26:33.481Z,8.3
2017-04-25T08:27:35.938Z,8.1
2017-04-25T08:28:38.502Z,8.3
2017-04-25T08:29:40.956Z,8.3
2017-04-25T08:30:43.627Z,8.5
2017-04-25T08:31:46.157Z,8.3
2017-04-25T08:32:48.890Z,8.4
2017-04-25T08:33:51.456Z,7.9
2017-04-25T08:34:54.702Z,8.2
2017-04-25T08:35:57.212Z,8
2017-04-25T08:36:59.961Z,8.6
2017-04-25T08:38:02.566Z,8.5
2017-04-25T08:39:04.988Z,8.2
2017-04-25T08:40:07.722Z,8.2
2017-04-25T08:41:10.273Z,8.5
2017-04-25T08:42:13.572Z,8.3
2017-04-25T08:43:17.001Z,8.4
2017-04-25T08:44:19.710Z,8.6
2017-04-25T08:45:31.082Z,8.9
2017-04-25T08:46:33.705Z,9.5
2017-04-25T08:47:36.142Z,9.6
2017-04-25T08:48:38.662Z,9.9
2017-04-25T08:49:41.184Z,9.8
2017-04-25T08:50:43.633Z,10.1
2017-04-25T08:51:46.066Z,9.8
2017-04-25T08:52:48.630Z,9.3
2017-04-25T08:53:51.135Z,10
2017-04-25T08:54:53.729Z,10.1
2017-04-25T08:55:56.268Z,10.9
2017-04-25T08:56:58.806Z,11.3
2017-04-25T08:58:01.388Z,10.2
2017-04-25T08:59:04.020Z,10
2017-04-25T09:00:06.445Z,10.4
2017-04-25T09:01:08.979Z,10.2
2017-04-25T09:02:11.487Z,11
2017-04-25T09:03:13.984Z,10.9
2017-04-25T09:04:16.584Z,10.9
2017-04-25T09:05:19.621Z,11.1
2017-04-25T09:06:22.296Z,10.3
2017-04-25T09:07:24.944Z,10.1
2017-04-25T09:08:27.619Z,10.3
2017-04-25T09:09:30.322Z,10.6
2017-04-25T09:10:32.885Z,10.1
2017-04-25T09:11:35.406Z,10.2
2017-04-25T09:12:37.938Z,10.1
2017-04-25T09:13:40.571Z,10.2
2017-04-25T09:14:43.161Z,9.9
2017-04-25T09:15:45.808Z,10.3
2017-04-25T09:16:49.101Z,9.5
2017-04-25T09:17:51.961Z,9.2
2017-04-25T09:18:54.537Z,8.9
2017-04-25T09:19:56.968Z,7.6
2017-04-25T09:20:59.466Z,7.6
2017-04-25T09:22:02.008Z,7.3
2017-04-25T09:23:04.486Z,7.7
2017-04-25T09:24:07.019Z,7.3
2017-04-25T09:25:09.469Z,7.3
2017-04-25T09:26:12.056Z,7.2
2017-04-25T09:27:14.702Z,7.1
2017-04-25T09:28:18.497Z,7.4
2017-04-25T09:29:22.632Z,7.2
2017-04-25T09:30:25.117Z,7.2
2017-04-25T09:31:27.717Z,7
2017-04-25T09:32:30.941Z,6.8
2017-04-25T09:33:33.541Z,6.6
2017-04-25T09:34:36.108Z,7.3
2017-04-25T09:35:38.619Z,7.9
2017-04-25T09:36:41.053Z,7.5
2017-04-25T09:37:43.594Z,6.9
2017-04-25T09:38:46.228Z,7.5
2017-04-25T09:39:48.711Z,6.9
2017-04-25T09:40:51.333Z,7.1
2017-04-25T09:41:54.123Z,7.6
2017-04-25T09:42:56.739Z,7.6
2017-04-25T09:43:59.612Z,7.9
2017-04-25T09:45:02.069Z,7.5
2017-04-25T09:46:04.501Z,7.6
2017-04-25T09:47:07.571Z,7.7
2017-04-25T09:48:10.099Z,7.7
2017-04-25T09:49:12.635Z,7.8
2017-04-25T09:50:15.117Z,8.3
2017-04-25T09:51:17.660Z,8.8
2017-04-25T09:52:20.274Z,9
2017-04-25T09:53:23.131Z,9
2017-04-25T09:54:25.671Z,9.3
2017-04-25T09:55:28.294Z,8.9
2017-04-25T09:56:30.822Z,8.5
2017-04-25T09:57:33.288Z,8.8
2017-04-25T09:58:35.868Z,8.1
2017-04-25T09:59:38.549Z,8.3
2017-04-25T10:00:41.968Z,8.9
2017-04-25T10:01:45.118Z,9.1
2017-04-25T10:02:47.772Z,9.2
2017-04-25T10:03:50.562Z,8.9
2017-04-25T10:04:53.345Z,8.9
2017-04-25T10:05:55.984Z,9.4
2017-04-25T10:06:58.628Z,9.4
2017-04-25T10:08:01.317Z,9.3
2017-04-25T10:09:04.368Z,9.4
2017-04-25T10:10:06.855Z,10
2017-04-25T10:11:09.366Z,10
2017-04-25T10:12:12.061Z,9.9
2017-04-25T10:13:14.836Z,9.2
2017-04-25T10:14:17.777Z,9.8
2017-04-25T10:15:20.802Z,9.6
2017-04-25T10:16:23.476Z,10.4
2017-04-25T10:17:26.250Z,11.3
2017-04-25T10:18:30.180Z,11.7
2017-04-25T10:19:33.192Z,12.2
2017-04-25T10:20:35.921Z,12.2
2017-04-25T10:21:38.490Z,12.3
2017-04-25T10:22:41.392Z,11.6
2017-04-25T10:23:44.418Z,12.5
2017-04-25T10:24:47.124Z,12
2017-04-25T10:25:49.848Z,11.3
2017-04-25T10:26:52.490Z,11.6
2017-04-25T10:27:55.089Z,12.1
2017-04-25T10:28:57.839Z,11.5
2017-04-25T10:30:00.405Z,11.8
2017-04-25T10:31:03.154Z,12.1
2017-04-25T10:32:06.006Z,11.7
2017-04-25T10:33:08.767Z,12.5
2017-04-25T10:34:11.545Z,12.2
2017-04-25T10:35:14.177Z,12
2017-04-25T10:36:17.077Z,12.2
2017-04-25T10:37:19.960Z,12.2
2017-04-25T10:38:24.145Z,13.3
2017-04-25T10:39:27.301Z,13.3
2017-04-25T10:40:30.040Z,13.7
2017-04-25T10:41:32.577Z,13.7
2017-04-25T10:42:35.137Z,12.8
2017-04-25T10:43:37.872Z,13.2
2017-04-25T10:44:45.785Z,13
2017-04-25T10:45:48.582Z,12.7
2017-04-25T10:46:51.392Z,13.4
2017-04-25T10:47:54.915Z,14.3
2017-04-25T10:48:57.537Z,14.4
2017-04-25T10:50:00.368Z,14.5
2017-04-25T10:51:03.208Z,14.2
2017-04-25T10:52:05.863Z,14
2017-04-25T10:53:09.193Z,13.9
2017-04-25T10:54:12.959Z,14.2
2017-04-25T10:55:16.157Z,13.5
2017-04-25T10:56:19.640Z,13.8
2017-04-25T10:57:22.602Z,12.5
2017-04-25T10:58:25.626Z,13.3
2017-04-25T10:59:29.565Z,13.5
2017-04-25T11:00:33.979Z,13.2
2017-04-25T11:01:37.488Z,13.3
2017-04-25T11:02:41.319Z,13.6
2017-04-25T11:03:44.232Z,14.7
2017-04-25T11:04:47.328Z,14.1
2017-04-25T11:05:51.070Z,14.1
2017-04-25T11:06:54.287Z,13.7
2017-04-25T11:07:57.798Z,13.9
2017-04-25T11:09:00.702Z,14
2017-04-25T11:10:03.646Z,13.5
2017-04-25T11:11:06.538Z,13.3
2017-04-25T11:12:12.380Z,14.3
2017-04-25T11:13:17.132Z,14
2017-04-25T11:14:21.981Z,13.5
2017-04-25T11:15:24.935Z,13.6
2017-04-25T11:16:29.809Z,13.2
2017-04-25T11:17:34.379Z,13.3
2017-04-25T11:18:40.026Z,12.6
2017-04-25T11:19:44.783Z,12.3
2017-04-25T11:20:50.404Z,12.6
2017-04-25T11:21:53.990Z,13
2017-04-25T11:23:00.547Z,14.1
2017-04-25T11:24:06.051Z,14.2
2017-04-25T11:25:10.178Z,14.4
2017-04-25T11:26:15.582Z,14.4
2017-04-25T11:27:22.439Z,14
2017-04-25T11:28:30.289Z,13
2017-04-25T11:29:37.924Z,13.4
2017-04-25T11:30:44.482Z,14
2017-04-25T11:31:51.037Z,13.9
2017-04-25T11:32:56.305Z,13.9
2017-04-25T11:34:03.418Z,13.8
2017-04-25T11:35:07.052Z,14.2
2017-04-25T11:36:21.051Z,12.9
2017-04-25T11:37:29.666Z,13
2017-04-25T11:38:35.992Z,13.1
2017-04-25T11:39:41.525Z,13.8
2017-04-25T11:40:47.030Z,13.8
2017-04-25T11:41:51.645Z,12.2
2017-04-25T11:42:56.882Z,11.6
2017-04-25T11:44:04.171Z,11.5
2017-04-25T11:45:09.681Z,12.6
2017-04-25T11:46:16.261Z,12.4
2017-04-25T11:47:24.206Z,12.8
2017-04-25T11:48:35.652Z,13.3
2017-04-25T11:49:43.816Z,13.3
2017-04-25T11:50:52.058Z,12.6
2017-04-25T11:51:58.028Z,12.6
2017-04-25T11:53:01.865Z,12.1
2017-04-25T11:54:08.601Z,12.3
2017-04-25T11:55:15.374Z,12.2
2017-04-25T11:56:22.573Z,12.7
2017-04-25T11:57:32.258Z,12.6
2017-04-25T11:58:40.497Z,13
2017-04-25T11:59:47.936Z,12.9
2017-04-25T12:00:56.036Z,13
2017-04-25T12:02:05.640Z,12.8
2017-04-25T12:03:13.751Z,12.4
2017-04-25T12:04:21.589Z,11.1
2017-04-25T12:05:31.753Z,11.3
2017-04-25T12:06:41.784Z,11.4
2017-04-25T12:07:51.348Z,11.9
2017-04-25T12:08:59.426Z,11.3
2017-04-25T12:10:05.387Z,10.9
2017-04-25T12:11:12.766Z,11.2
2017-04-25T12:12:24.942Z,11.2
2017-04-25T12:13:34.474Z,11.4
2017-04-25T12:14:45.693Z,11.4
2017-04-25T12:15:55.330Z,11.6
2017-04-25T12:17:10.492Z,11.9
2017-04-25T12:18:19.509Z,12.3
2017-04-25T12:19:27.033Z,12
2017-04-25T12:20:36.380Z,12.1
2017-04-25T12:21:44.555Z,12.3
2017-04-25T12:22:53.380Z,12.7
2017-04-25T12:24:00.682Z,13.2
2017-04-25T12:25:09.407Z,12.6
2017-04-25T12:26:21.476Z,12.6
2017-04-25T12:27:30.878Z,11.9
2017-04-25T12:28:43.545Z,12.5
2017-04-25T12:29:54.270Z,12.9
2017-04-25T12:31:04.459Z,13.3
2017-04-25T12:32:13.803Z,13.5
2017-04-25T12:33:23.413Z,14.1
2017-04-25T12:34:32.173Z,13.4
2017-04-25T12:35:40.759Z,13.4
2017-04-25T12:36:48.951Z,13.8
2017-04-25T12:37:57.761Z,14
2017-04-25T12:39:06.906Z,13.9
2017-04-25T12:40:15.116Z,13.7
2017-04-25T12:41:21.109Z,13.3
2017-04-25T12:42:30.068Z,12.7
2017-04-25T12:43:38.686Z,12.1
2017-04-25T12:44:48.141Z,11.4
2017-04-25T12:45:56.925Z,11.5
2017-04-25T12:47:07.024Z,12
2017-04-25T12:48:13.665Z,11.5
2017-04-25T12:49:21.084Z,11.8
2017-04-25T12:50:29.318Z,11.9
2017-04-25T12:51:36.865Z,11.7
2017-04-25T12:52:43.635Z,11.7
2017-04-25T12:53:52.958Z,11.2
2017-04-25T12:55:02.293Z,11.3
2017-04-25T12:56:10.421Z,11.5
2017-04-25T12:57:18.109Z,11.6
2017-04-25T12:58:29.313Z,11.8
2017-04-25T12:59:42.705Z,12.6
2017-04-25T13:00:48.521Z,12.6
2017-04-25T13:01:53.866Z,12.3
2017-04-25T13:03:02.104Z,12.6
2017-04-25T13:05:27.299Z,12.4
2017-04-25T13:06:37.788Z,12.6
2017-04-25T13:07:45.175Z,13.1
2017-04-25T13:08:50.161Z,12.8
2017-04-25T13:09:56.347Z,12.7
2017-04-25T13:11:04.174Z,13.2
2017-04-25T13:12:13.575Z,13
2017-04-25T13:13:21.793Z,13.1
2017-04-25T13:14:29.710Z,13.6
2017-04-25T13:15:35.176Z,13.4
2017-04-25T13:16:45.805Z,13.6
2017-04-25T13:17:54.729Z,13.6
2017-04-25T13:19:04.048Z,12.8
2017-04-25T13:20:13.203Z,12
2017-04-25T13:21:23.007Z,12.1
2017-04-25T13:22:34.813Z,13
2017-04-25T13:23:38.681Z,12.9
2017-04-25T13:24:42.461Z,13
2017-04-25T13:25:47.102Z,12.7
2017-04-25T13:26:51.245Z,13.3
2017-04-25T13:27:54.290Z,12.6
2017-04-25T13:28:57.717Z,13.1
2017-04-25T13:30:00.479Z,13.8
2017-04-25T13:31:03.276Z,13.7
2017-04-25T13:32:05.932Z,13.5
2017-04-25T13:33:08.741Z,13.1
2017-04-25T13:34:12.525Z,13
2017-04-25T13:35:15.409Z,12.8
2017-04-25T13:36:18.716Z,12.6
2017-04-25T13:37:21.336Z,12.7
2017-04-25T13:38:26.138Z,13.1
2017-04-25T13:39:29.875Z,12.6
2017-04-25T13:40:32.840Z,12.1
2017-04-25T13:41:35.624Z,13
2017-04-25T13:42:38.345Z,13
2017-04-25T13:43:42.888Z,12.7
2017-04-25T13:44:45.794Z,12.1
2017-04-25T13:45:49.726Z,12.1
2017-04-25T13:46:53.387Z,11.7
2017-04-25T13:47:58.785Z,11.6
2017-04-25T13:49:01.730Z,11.9
2017-04-25T13:50:04.515Z,11.9
2017-04-25T13:51:07.504Z,11.9
2017-04-25T13:52:10.256Z,12.3
2017-04-25T13:53:13.149Z,11.8
2017-04-25T13:54:16.560Z,12.2
2017-04-25T13:55:20.141Z,12.1
2017-04-25T13:56:24.924Z,12.1
2017-04-25T13:57:28.332Z,11.9
2017-04-25T13:58:31.053Z,12.1
2017-04-25T13:59:33.825Z,12.2
2017-04-25T14:00:37.498Z,12.2
2017-04-25T14:01:41.575Z,12.1
2017-04-25T14:02:44.402Z,11.8
2017-04-25T14:03:50.027Z,11.9
2017-04-25T14:04:53.864Z,11.6
2017-04-25T14:05:57.376Z,11.9
2017-04-25T14:07:00.234Z,12.3
2017-04-25T14:08:03.972Z,12.1
2017-04-25T14:09:08.302Z,12.3
2017-04-25T14:10:11.074Z,12.2
2017-04-25T14:11:15.061Z,12.1
2017-04-25T14:12:18.388Z,12.7
2017-04-25T14:13:21.996Z,12.3
2017-04-25T14:14:28.015Z,11.7
2017-04-25T14:15:33.095Z,11.5
2017-04-25T14:16:36.957Z,11.8
2017-04-25T14:17:40.159Z,11.6
2017-04-25T14:18:42.925Z,11.7
2017-04-25T14:19:45.713Z,11.8
2017-04-25T14:20:48.727Z,11.5
2017-04-25T14:21:51.845Z,11.6
2017-04-25T14:22:54.977Z,11.7
2017-04-25T14:23:59.582Z,11.2
2017-04-25T14:25:03.003Z,11.3
2017-04-25T14:26:05.772Z,11.2
2017-04-25T14:27:11.216Z,11.6
2017-04-25T14:28:17.350Z,11.5